Latest Weather Observations for Cummins Airport

IDS60801

Issued at 2:31 pm CDT Sunday 11 December 2016 (issued every 30 minutes, with the page automatically refreshed every 10 minutes)

About weather observations | Map of weather stations | Latest weather observations for SA | Other Formats
Station Details ID: 018217 Name: CUMMINS AERO Lat: -34.25 Lon: 135.71 Height: 60.11 m
Data from the previous 72 hours. | See also: Recent months at Cummins Airport
Date/Time
CDT
Temp
°C
App
Temp
°C
Dew
Point
°C
Rel
Hum
%
Delta-T
°C
Wind Press
QNH
hPa
Press
MSL
hPa
Rain since
9am
mm
Dir  Spd
km/h
Gust
km/h
Spd
kts
Gust
kts
11/02:00pm 30.0 27.1 9.5 28 11.5 E 15 24 8 13 1018.5 1018.3 0.0
11/01:30pm 30.0 26.9 7.2 24 12.3 NE 13 24 7 13 1019.0 1018.8 0.0
11/01:00pm 29.2 26.2 7.7 26 11.7 ENE 13 20 7 11 1019.5 1019.3 0.0
11/12:30pm 28.5 25.2 6.6 25 11.6 NE 13 24 7 13 1020.0 1019.8 0.0
11/12:00pm 27.4 24.9 8.3 30 10.4 E 11 20 6 11 1020.3 1020.1 0.0
11/11:30am 26.5 24.0 8.0 31 9.9 ENE 11 20 6 11 1020.6 1020.4 0.0
11/11:00am 26.0 23.7 8.9 34 9.3 ESE 11 20 6 11 1020.8 1020.6 0.0
11/10:30am 24.2 21.0 8.6 37 8.4 E 15 20 8 11 1021.0 1020.8 0.0
11/10:00am 23.7 20.6 10.4 43 7.4 ESE 17 24 9 13 1021.3 1021.1 0.0
11/09:30am 22.6 20.1 11.0 48 6.4 ESE 15 22 8 12 1021.5 1021.4 0.0
11/09:00am 20.5 17.7 11.2 55 5.1 ESE 17 24 9 13 1021.6 1021.5 0.0
11/08:30am 18.9 15.9 11.9 64 3.9 ESE 19 28 10 15 1021.7 1021.6 0.0
11/08:00am 17.5 15.3 12.0 70 3.0 ESE 15 24 8 13 1021.7 1021.6 0.0
11/07:30am 15.9 13.9 12.6 81 1.8 ESE 15 20 8 11 1021.5 1021.4 0.0
11/07:00am 14.7 13.7 12.2 85 1.4 ESE 9 13 5 7 1021.5 1021.4 0.0
11/06:30am 13.5 12.8 11.9 90 0.9 SE 7 13 4 7 1021.2 1021.0 0.0
11/06:00am 13.4 11.5 11.8 90 0.9 ESE 13 20 7 11 1020.8 1020.6 0.0
11/05:30am 13.2 10.5 11.8 91 0.7 ESE 17 20 9 11 1020.6 1020.4 0.0
11/05:00am 13.2 10.9 11.8 91 0.7 ESE 15 20 8 11 1020.5 1020.3 0.0
11/04:30am 13.4 11.1 11.8 90 0.9 E 15 20 8 11 1020.4 1020.2 0.0
11/04:00am 13.2 10.8 11.4 89 1.0 ESE 15 20 8 11 1020.5 1020.3 0.0
11/03:30am 13.5 10.8 11.7 89 1.0 ESE 17 24 9 13 1020.6 1020.4 0.0
11/03:00am 13.5 10.8 11.6 88 1.0 ESE 17 20 9 11 1020.9 1020.7 0.0
11/02:30am 13.7 11.4 11.6 87 1.1 ESE 15 22 8 12 1021.1 1020.9 0.0
11/02:00am 14.0 11.2 11.5 85 1.3 ESE 17 22 9 12 1021.3 1021.1 0.0
11/01:30am 14.2 11.0 11.4 83 1.5 ESE 19 26 10 14 1021.5 1021.4 0.0
11/01:00am 14.5 11.2 11.7 83 1.5 SE 20 28 11 15 1021.7 1021.6 0.0
11/12:30am 14.4 12.3 12.3 87 1.1 SE 15 20 8 11 1022.0 1021.9 0.0
11/12:00am 13.9 12.6 12.5 91 0.8 SE 11 15 6 8 1022.2 1022.1 0.0
 
Date/Time
CDT
Temp
°C
App
Temp
°C
Dew
Point
°C
Rel
Hum
%
Delta-T
°C
Wind Press
QNH
hPa
Press
MSL
hPa
Rain since
9am
mm
Dir  Spd
km/h
Gust
km/h
Spd
kts
Gust
kts
10/11:30pm 12.9 11.6 11.1 89 0.9 SSE 9 13 5 7 1022.5 1022.4 0.0
10/11:00pm 14.0 12.4 11.7 86 1.2 SSE 11 15 6 8 1022.5 1022.4 0.0
10/10:30pm 14.3 12.0 11.8 85 1.3 SSE 15 19 8 10 1022.5 1022.4 0.0
10/10:00pm 14.4 11.7 11.6 83 1.5 SSE 17 20 9 11 1022.4 1022.3 0.0
10/09:30pm 15.0 12.3 11.8 81 1.7 SSE 17 24 9 13 1022.3 1022.2 0.0
10/09:00pm 15.5 12.2 11.5 77 2.1 SSE 20 30 11 16 1022.2 1022.1 0.0
10/08:30pm 16.3 12.1 11.2 72 2.7 SSE 24 30 13 16 1022.1 1022.0 0.0
10/08:00pm 17.5 13.3 11.1 66 3.5 SSE 24 32 13 17 1021.8 1021.7 0.0
10/07:30pm 18.9 14.5 10.5 58 4.5 SE 24 33 13 18 1021.4 1021.2 0.0
10/07:00pm 20.1 14.8 8.4 47 6.1 SE 26 33 14 18 1021.0 1020.8 0.0
10/06:30pm 21.2 15.0 7.8 42 6.9 SE 30 35 16 19 1020.8 1020.6 0.0
10/06:00pm 21.7 15.9 7.9 41 7.2 SE 28 37 15 20 1020.6 1020.4 0.0
10/05:30pm 22.6 16.6 7.2 37 8.0 SE 28 35 15 19 1020.6 1020.4 0.0
10/05:00pm 23.4 17.6 6.2 33 8.8 SE 26 35 14 19 1020.8 1020.6 0.0
10/04:30pm 24.0 18.1 5.8 31 9.2 SE 26 35 14 19 1020.9 1020.7 0.0
10/04:00pm 25.7 20.3 6.3 29 10.1 SE 24 35 13 19 1020.8 1020.6 0.0
10/03:30pm 25.9 20.5 8.0 32 9.6 SE 26 39 14 21 1021.0 1020.8 0.0
10/03:00pm 25.0 19.2 8.1 34 9.0 SE 28 41 15 22 1021.2 1021.0 0.0
10/02:30pm 25.8 22.0 7.4 31 9.7 SE 17 28 9 15 1021.4 1021.2 0.0
10/02:00pm 26.0 22.6 7.6 31 9.8 SSE 15 24 8 13 1021.7 1021.6 0.0
10/01:30pm 25.0 22.3 5.7 29 9.8 SW 9 19 5 10 1022.1 1022.0 0.0
10/01:00pm 25.9 23.0 6.5 29 10.1 SSE 11 22 6 12 1022.4 1022.3 0.0
10/12:30pm 24.9 22.5 7.1 32 9.3 ESE 9 15 5 8 1022.7 1022.6 0.0
10/12:00pm 23.2 20.7 6.5 34 8.5 SSE 9 19 5 10 1022.8 1022.7 0.0
10/11:30am 22.3 20.8 6.9 37 7.9 WSW 4 11 2 6 1022.9 1022.8 0.0
10/11:00am 22.4 20.0 7.0 37 7.9 ESE 9 17 5 9 1023.3 1023.2 0.0
10/10:30am 20.9 18.5 7.2 41 7.0 ESE 9 17 5 9 1023.4 1023.3 0.0
10/10:00am 20.8 18.9 9.1 47 6.2 E 9 15 5 8 1023.4 1023.3 0.0
10/09:30am 19.6 16.4 8.6 49 5.7 E 15 20 8 11 1023.5 1023.4 0.0
10/09:00am 19.1 16.0 10.4 57 4.7 E 17 22 9 12 1023.3 1023.2 0.0
10/08:30am 17.3 13.8 10.2 63 3.8 E 19 24 10 13 1023.3 1023.2 0.0
10/08:00am 16.1 13.0 10.4 69 3.0 E 17 24 9 13 1023.2 1023.1 0.0
10/07:30am 14.8 12.9 10.4 75 2.3 E 11 15 6 8 1023.0 1022.9 0.0
10/07:00am 13.4 11.4 10.2 81 1.7 E 11 17 6 9 1022.5 1022.4 0.0
10/06:30am 12.3 9.9 10.0 86 1.2 E 13 17 7 9 1022.3 1022.2 0.0
10/06:00am 10.4 8.4 8.7 89 0.8 ESE 9 13 5 7 1022.1 1022.0 0.0
10/05:30am 11.2 9.9 9.1 87 1.0 ESE 6 9 3 5 1021.9 1021.8 0.0
10/05:00am 11.6 10.2 9.5 87 1.1 ESE 7 13 4 7 1021.7 1021.6 0.0
10/04:30am 11.9 9.8 9.6 86 1.2 E 11 17 6 9 1021.6 1021.5 0.0
10/04:00am 12.4 10.0 10.1 86 1.2 E 13 20 7 11 1021.6 1021.5 0.0
10/03:30am 12.3 9.8 9.7 84 1.3 ESE 13 20 7 11 1021.7 1021.6 0.0
10/03:00am 12.4 9.6 10.0 85 1.2 ESE 15 22 8 12 1021.7 1021.6 0.0
10/02:30am 11.9 9.7 9.5 85 1.2 SE 11 15 6 8 1022.0 1021.9 0.0
10/02:00am 11.7 9.1 9.3 85 1.2 SE 13 17 7 9 1022.3 1022.2 0.0
10/01:30am 11.6 9.0 9.2 85 1.2 SE 13 17 7 9 1022.4 1022.3 0.0
10/01:00am 10.8 8.6 7.9 82 1.4 SSE 9 13 5 7 1022.8 1022.7 0.0
10/12:30am 12.0 10.0 8.5 79 1.7 SSE 9 13 5 7 1022.9 1022.8 0.0
10/12:00am 12.7 9.2 8.8 77 1.9 SE 17 24 9 13 1023.1 1023.0 0.0
 
Date/Time
CDT
Temp
°C
App
Temp
°C
Dew
Point
°C
Rel
Hum
%
Delta-T
°C
Wind Press
QNH
hPa
Press
MSL
hPa
Rain since
9am
mm
Dir  Spd
km/h
Gust
km/h
Spd
kts
Gust
kts
09/11:30pm 12.4 8.8 8.5 77 1.9 SE 17 24 9 13 1023.0 1022.9 0.0
09/11:00pm 12.2 9.2 7.7 74 2.2 SSE 13 17 7 9 1023.3 1023.2 0.0
09/10:30pm 12.8 9.5 7.9 72 2.4 SSE 15 20 8 11 1023.2 1023.1 0.0
09/10:00pm 13.0 9.6 7.7 70 2.6 SE 15 17 8 9 1023.4 1023.3 0.0
09/09:30pm 13.7 9.9 7.7 67 2.9 SE 17 20 9 11 1023.2 1023.1 0.0
09/09:00pm 14.2 10.0 7.3 63 3.4 SE 19 24 10 13 1023.1 1023.0 0.0
09/08:30pm 15.3 10.4 7.1 58 4.0 SE 22 28 12 15 1022.8 1022.7 0.0
09/08:00pm 16.5 11.5 6.6 52 4.9 SE 22 28 12 15 1022.5 1022.4 0.0
09/07:30pm 17.9 12.8 5.8 45 5.9 SE 22 30 12 16 1022.3 1022.2 0.0
09/07:00pm 18.4 12.9 4.2 39 6.8 SE 22 28 12 15 1022.0 1021.9 0.0
09/06:30pm 18.7 13.1 5.2 41 6.5 ESE 24 32 13 17 1021.6 1021.5 0.0
09/06:00pm 19.2 14.0 5.6 41 6.7 SE 22 32 12 17 1021.5 1021.4 0.0
09/05:30pm 20.6 14.9 6.5 40 7.1 SSE 26 37 14 20 1021.4 1021.2 0.0
09/05:00pm 20.9 16.2 5.3 36 7.7 ESE 19 33 10 18 1021.3 1021.1 0.0
09/04:30pm 22.0 17.2 5.4 34 8.3 SE 20 30 11 16 1021.5 1021.4 0.0
09/04:00pm 22.0 18.1 5.4 34 8.3 SE 15 22 8 12 1021.5 1021.4 0.0
09/03:30pm 20.8 16.9 5.2 36 7.7 SE 15 24 8 13 1021.9 1021.8 0.0
09/03:00pm 21.8 18.4 5.7 35 8.0 E 13 22 7 12 1022.1 1022.0 0.0
09/02:30pm 22.2 18.7 5.6 34 8.3 SSE 13 26 7 14 1022.1 1022.0 0.0
09/02:00pm 21.6 18.0 5.1 34 8.2 E 13 28 7 15 1022.3 1022.2 0.0
09/01:30pm 20.7 16.7 5.1 36 7.6 ESE 15 20 8 11 1022.7 1022.6 0.0
09/01:00pm 19.8 16.2 5.1 38 7.2 SE 13 20 7 11 1023.0 1022.9 0.0
09/12:30pm 19.5 15.7 5.9 41 6.7 SE 15 26 8 14 1023.2 1023.1 0.0
09/12:00pm 19.4 14.8 5.8 41 6.7 ESE 19 28 10 15 1023.4 1023.3 0.0
09/11:30am 18.4 14.3 6.3 45 6.0 ESE 17 26 9 14 1023.4 1023.3 0.0
09/11:00am 18.4 14.2 5.9 44 6.2 SSE 17 28 9 15 1023.5 1023.4 0.0
09/10:30am 17.5 13.2 5.1 44 5.9 SSE 17 26 9 14 1023.4 1023.3 0.0
09/10:00am 16.2 11.7 4.3 45 5.6 SSE 17 24 9 13 1023.4 1023.3 0.0
09/09:30am 16.5 12.5 4.9 46 5.5 S 15 24 8 13 1023.4 1023.3 0.0
09/09:00am 15.8 11.8 5.1 49 5.1 SSE 15 22 8 12 1023.3 1023.2 0.0
09/08:30am 14.6 11.2 5.7 55 4.2 SSE 13 19 7 10 1023.3 1023.2 0.0
09/08:00am 12.7 11.9 6.7 67 2.9 CALM 0 0 0 0 1023.2 1023.1 0.0
09/07:30am 11.0 10.4 7.3 78 1.8 CALM 0 0 0 0 1022.6 1022.5 0.0
09/07:00am 9.7 9.0 6.8 82 1.4 CALM 0 6 0 3 1022.1 1022.0 0.0
09/06:30am 8.2 5.9 5.8 85 1.1 N 7 7 4 4 1021.7 1021.6 0.0
09/06:00am 9.0 8.1 6.1 82 1.3 CALM 0 0 0 0 1021.5 1021.4 0.0
09/05:30am 9.4 8.7 6.8 84 1.2 CALM 0 0 0 0 1021.2 1021.0 0.0
09/05:00am 9.7 9.1 7.6 87 1.0 CALM 0 0 0 0 1020.9 1020.7 0.0
09/04:30am 7.9 6.3 6.5 91 0.6 E 4 9 2 5 1020.5 1020.3 0.0
09/04:00am 7.1 5.9 4.8 85 1.0 CALM 0 0 0 0 1020.1 1019.9 0.0
09/03:30am 9.4 7.4 7.3 87 1.0 SSW 7 9 4 5 1020.0 1019.8 0.0
09/03:00am 9.7 7.3 7.1 84 1.2 S 9 11 5 6 1019.8 1019.6 0.0
09/02:30am 11.1 8.6 8.1 82 1.5 SSW 11 13 6 7 1019.9 1019.7 0.0
09/02:00am 10.1 8.2 7.7 85 1.2 SSW 7 9 4 5 1020.0 1019.8 0.0
09/01:30am 8.6 6.1 6.4 86 1.0 SW 9 11 5 6 1020.0 1019.8 0.0
09/01:00am 8.7 6.1 6.3 85 1.1 SW 9 11 5 6 1020.0 1019.8 0.0
09/12:30am 9.2 6.3 6.6 84 1.2 SSW 11 11 6 6 1020.0 1019.8 0.0
09/12:00am 10.1 7.4 7.2 82 1.4 SSW 11 13 6 7 1019.9 1019.7 0.0
 
Date/Time
CDT
Temp
°C
App
Temp
°C
Dew
Point
°C
Rel
Hum
%
Delta-T
°C
Wind Press
QNH
hPa
Press
MSL
hPa
Rain since
9am
mm
Dir  Spd
km/h
Gust
km/h
Spd
kts
Gust
kts
08/11:30pm 10.6 8.6 7.3 80 1.6 SW 7 9 4 5 1019.8 1019.6 0.0
08/11:00pm 11.3 9.1 7.8 79 1.7 SW 9 11 5 6 1019.7 1019.5 0.0
08/10:30pm 12.2 9.6 7.7 74 2.2 SSW 11 13 6 7 1019.5 1019.3 0.0
08/10:00pm 13.6 9.9 8.0 69 2.8 SSW 17 24 9 13 1019.1 1018.9 0.0
08/09:30pm 14.2 10.7 8.8 70 2.7 SSW 17 24 9 13 1018.7 1018.5 0.0
08/09:00pm 13.8 9.8 8.2 69 2.8 SSW 19 26 10 14 1018.4 1018.2 0.0
08/08:30pm 14.5 9.8 9.1 70 2.8 SW 24 33 13 18 1018.0 1017.8 0.0
08/08:05pm 13.6 7.4 9.5 76 2.1 SW 32 50 17 27 1017.9 1017.7 0.0
08/08:00pm 13.8 6.7 9.6 76 2.2 SW 37 50 20 27 1017.9 1017.7 0.0
08/07:30pm 16.2 8.3 6.1 51 4.9 SW 37 48 20 26 1017.0 1016.8 0.0
08/07:00pm 16.6 8.7 6.1 50 5.1 SW 37 48 20 26 1016.7 1016.5 0.0
08/06:30pm 16.7 9.7 6.2 50 5.1 SW 32 43 17 23 1016.2 1016.0 0.0
08/06:00pm 18.1 11.4 7.5 50 5.4 SW 32 43 17 23 1015.7 1015.5 0.0
08/05:30pm 18.9 11.4 6.1 43 6.3 SW 35 48 19 26 1015.4 1015.2 0.0
08/05:00pm 19.3 12.4 7.4 46 6.1 WSW 33 46 18 25 1015.1 1014.9 0.0
08/04:30pm 19.7 11.3 5.4 39 7.0 WSW 39 52 21 28 1014.7 1014.5 0.0
08/04:00pm 19.7 11.8 4.2 36 7.4 WSW 35 50 19 27 1014.4 1014.2 0.0
08/03:30pm 20.0 12.1 4.1 35 7.6 WSW 35 50 19 27 1014.1 1013.9 0.0
08/03:00pm 19.3 11.6 5.4 40 6.8 WSW 35 46 19 25 1014.2 1014.0 0.0
08/02:36pm 19.5 11.5 4.0 36 7.4 WSW 35 54 19 29 1014.2 1014.0 0.0

Other Formats:

Comma delimited format used in spreadsheet applications
http://www.bom.gov.au/fwo/IDS60801/IDS60801.95663.axf

JavaScript Object Notation format (JSON) in row-major order
http://www.bom.gov.au/fwo/IDS60801/IDS60801.95663.json